sensor_id;sensor_type;location;lat;lon;timestamp;temperature;humidity
6841;DHT22;3458;53.678;14.080;2023-08-20T00:02:23;24.60;99.90
6841;DHT22;3458;53.678;14.080;2023-08-20T00:04:49;24.60;99.90
6841;DHT22;3458;53.678;14.080;2023-08-20T00:07:15;24.60;99.90
6841;DHT22;3458;53.678;14.080;2023-08-20T00:09:43;24.60;99.90
6841;DHT22;3458;53.678;14.080;2023-08-20T00:12:09;24.60;99.90
6841;DHT22;3458;53.678;14.080;2023-08-20T00:15:03;24.60;99.90
6841;DHT22;3458;53.678;14.080;2023-08-20T00:17:36;24.50;99.90
6841;DHT22;3458;53.678;14.080;2023-08-20T00:20:03;24.50;99.90
6841;DHT22;3458;53.678;14.080;2023-08-20T00:22:38;24.50;99.90
6841;DHT22;3458;53.678;14.080;2023-08-20T00:25:04;24.60;99.90
6841;DHT22;3458;53.678;14.080;2023-08-20T00:27:31;24.50;99.90
6841;DHT22;3458;53.678;14.080;2023-08-20T00:29:56;24.50;99.90
6841;DHT22;3458;53.678;14.080;2023-08-20T00:32:22;24.50;99.90
6841;DHT22;3458;53.678;14.080;2023-08-20T00:34:48;24.50;99.90
6841;DHT22;3458;53.678;14.080;2023-08-20T00:37:13;24.50;99.90
6841;DHT22;3458;53.678;14.080;2023-08-20T00:39:39;24.50;99.90
6841;DHT22;3458;53.678;14.080;2023-08-20T00:42:04;24.50;99.90
6841;DHT22;3458;53.678;14.080;2023-08-20T00:44:30;24.40;99.90
6841;DHT22;3458;53.678;14.080;2023-08-20T00:46:56;24.40;99.90
6841;DHT22;3458;53.678;14.080;2023-08-20T00:49:22;24.40;99.90
6841;DHT22;3458;53.678;14.080;2023-08-20T00:51:48;24.40;99.90
6841;DHT22;3458;53.678;14.080;2023-08-20T00:54:14;24.40;99.90
6841;DHT22;3458;53.678;14.080;2023-08-20T00:56:40;24.40;99.90
6841;DHT22;3458;53.678;14.080;2023-08-20T00:59:06;24.40;99.90
6841;DHT22;3458;53.678;14.080;2023-08-20T01:01:31;24.40;99.90
6841;DHT22;3458;53.678;14.080;2023-08-20T01:03:57;24.40;99.90
6841;DHT22;3458;53.678;14.080;2023-08-20T01:08:58;24.40;99.90
6841;DHT22;3458;53.678;14.080;2023-08-20T01:11:30;24.40;99.90
6841;DHT22;3458;53.678;14.080;2023-08-20T01:13:59;24.40;99.90
6841;DHT22;3458;53.678;14.080;2023-08-20T01:16:24;24.40;99.90
6841;DHT22;3458;53.678;14.080;2023-08-20T01:18:50;24.40;99.90
6841;DHT22;3458;53.678;14.080;2023-08-20T01:21:37;24.10;99.90
6841;DHT22;3458;53.678;14.080;2023-08-20T01:27:19;23.70;99.90
6841;DHT22;3458;53.678;14.080;2023-08-20T01:29:50;23.80;99.90
6841;DHT22;3458;53.678;14.080;2023-08-20T01:32:16;23.90;99.90
6841;DHT22;3458;53.678;14.080;2023-08-20T01:34:43;23.90;99.90
6841;DHT22;3458;53.678;14.080;2023-08-20T01:37:08;24.00;99.90
6841;DHT22;3458;53.678;14.080;2023-08-20T01:39:34;24.00;99.90
6841;DHT22;3458;53.678;14.080;2023-08-20T01:41:59;24.10;99.90
6841;DHT22;3458;53.678;14.080;2023-08-20T01:44:25;24.10;99.90
6841;DHT22;3458;53.678;14.080;2023-08-20T01:46:50;24.20;99.90
6841;DHT22;3458;53.678;14.080;2023-08-20T01:49:15;24.20;99.90
6841;DHT22;3458;53.678;14.080;2023-08-20T01:51:41;24.30;99.90
6841;DHT22;3458;53.678;14.080;2023-08-20T01:54:06;24.30;99.90
6841;DHT22;3458;53.678;14.080;2023-08-20T01:56:32;24.30;99.90
6841;DHT22;3458;53.678;14.080;2023-08-20T01:58:57;24.20;99.90
6841;DHT22;3458;53.678;14.080;2023-08-20T02:01:23;24.20;99.90
6841;DHT22;3458;53.678;14.080;2023-08-20T02:03:48;24.20;99.90
6841;DHT22;3458;53.678;14.080;2023-08-20T02:06:14;24.20;99.90
6841;DHT22;3458;53.678;14.080;2023-08-20T02:08:39;24.20;99.90
6841;DHT22;3458;53.678;14.080;2023-08-20T02:11:05;24.20;99.90
6841;DHT22;3458;53.678;14.080;2023-08-20T02:13:31;24.20;99.90
6841;DHT22;3458;53.678;14.080;2023-08-20T02:16:01;24.20;99.90
6841;DHT22;3458;53.678;14.080;2023-08-20T02:18:27;24.30;99.90
6841;DHT22;3458;53.678;14.080;2023-08-20T02:20:53;24.20;99.90
6841;DHT22;3458;53.678;14.080;2023-08-20T02:23:18;24.20;99.90
6841;DHT22;3458;53.678;14.080;2023-08-20T02:25:44;24.20;99.90
6841;DHT22;3458;53.678;14.080;2023-08-20T02:28:09;24.10;99.90
6841;DHT22;3458;53.678;14.080;2023-08-20T02:30:45;24.10;99.90
6841;DHT22;3458;53.678;14.080;2023-08-20T02:33:12;24.20;99.90
6841;DHT22;3458;53.678;14.080;2023-08-20T02:35:38;24.20;99.90
6841;DHT22;3458;53.678;14.080;2023-08-20T02:38:05;24.20;99.90
6841;DHT22;3458;53.678;14.080;2023-08-20T02:40:30;24.10;99.90
6841;DHT22;3458;53.678;14.080;2023-08-20T02:42:56;24.10;99.90
6841;DHT22;3458;53.678;14.080;2023-08-20T02:45:22;24.10;99.90
6841;DHT22;3458;53.678;14.080;2023-08-20T02:47:48;24.10;99.90
6841;DHT22;3458;53.678;14.080;2023-08-20T02:50:14;24.10;99.90
6841;DHT22;3458;53.678;14.080;2023-08-20T02:52:42;24.10;99.90
6841;DHT22;3458;53.678;14.080;2023-08-20T02:55:07;24.00;99.90
6841;DHT22;3458;53.678;14.080;2023-08-20T02:57:33;23.90;99.90
6841;DHT22;3458;53.678;14.080;2023-08-20T02:59:59;24.00;99.90
6841;DHT22;3458;53.678;14.080;2023-08-20T03:02:25;23.90;99.90
6841;DHT22;3458;53.678;14.080;2023-08-20T03:04:50;23.90;99.90
6841;DHT22;3458;53.678;14.080;2023-08-20T03:07:16;24.00;99.90
6841;DHT22;3458;53.678;14.080;2023-08-20T03:09:41;23.90;99.90
6841;DHT22;3458;53.678;14.080;2023-08-20T03:12:07;23.90;99.90
6841;DHT22;3458;53.678;14.080;2023-08-20T03:14:32;24.00;99.90
6841;DHT22;3458;53.678;14.080;2023-08-20T03:16:58;24.00;99.90
6841;DHT22;3458;53.678;14.080;2023-08-20T03:19:23;23.90;99.90
6841;DHT22;3458;53.678;14.080;2023-08-20T03:21:49;23.90;99.90
6841;DHT22;3458;53.678;14.080;2023-08-20T03:24:14;23.90;99.90
6841;DHT22;3458;53.678;14.080;2023-08-20T03:26:40;23.90;99.90
6841;DHT22;3458;53.678;14.080;2023-08-20T03:29:05;24.00;99.90
6841;DHT22;3458;53.678;14.080;2023-08-20T03:31:31;23.90;99.90
6841;DHT22;3458;53.678;14.080;2023-08-20T03:33:57;23.90;99.90
6841;DHT22;3458;53.678;14.080;2023-08-20T03:36:22;23.90;99.90
6841;DHT22;3458;53.678;14.080;2023-08-20T03:38:48;23.90;99.90
6841;DHT22;3458;53.678;14.080;2023-08-20T03:41:13;23.90;99.90
6841;DHT22;3458;53.678;14.080;2023-08-20T03:43:39;23.80;99.90
6841;DHT22;3458;53.678;14.080;2023-08-20T03:46:04;23.80;99.90
6841;DHT22;3458;53.678;14.080;2023-08-20T03:48:30;23.80;99.90
6841;DHT22;3458;53.678;14.080;2023-08-20T03:50:56;23.80;99.90
6841;DHT22;3458;53.678;14.080;2023-08-20T03:53:21;23.70;99.90
6841;DHT22;3458;53.678;14.080;2023-08-20T03:55:50;23.70;99.90
6841;DHT22;3458;53.678;14.080;2023-08-20T03:58:16;23.60;99.90
6841;DHT22;3458;53.678;14.080;2023-08-20T04:00:41;23.70;99.90
6841;DHT22;3458;53.678;14.080;2023-08-20T04:03:07;23.70;99.90
6841;DHT22;3458;53.678;14.080;2023-08-20T04:05:36;23.70;99.90
6841;DHT22;3458;53.678;14.080;2023-08-20T04:08:03;23.70;99.90
6841;DHT22;3458;53.678;14.080;2023-08-20T04:10:29;23.60;99.90
6841;DHT22;3458;53.678;14.080;2023-08-20T04:12:54;23.60;99.90
6841;DHT22;3458;53.678;14.080;2023-08-20T04:15:20;23.60;99.90
6841;DHT22;3458;53.678;14.080;2023-08-20T04:17:45;23.60;99.90
6841;DHT22;3458;53.678;14.080;2023-08-20T04:20:11;23.60;99.90
6841;DHT22;3458;53.678;14.080;2023-08-20T04:22:37;23.60;99.90
6841;DHT22;3458;53.678;14.080;2023-08-20T04:25:04;23.60;99.90
6841;DHT22;3458;53.678;14.080;2023-08-20T04:27:29;23.50;99.90
6841;DHT22;3458;53.678;14.080;2023-08-20T04:29:56;23.50;99.90
6841;DHT22;3458;53.678;14.080;2023-08-20T04:32:21;23.60;99.90
6841;DHT22;3458;53.678;14.080;2023-08-20T04:34:47;23.50;99.90
6841;DHT22;3458;53.678;14.080;2023-08-20T04:37:14;23.50;99.90
6841;DHT22;3458;53.678;14.080;2023-08-20T04:39:40;23.50;99.90
6841;DHT22;3458;53.678;14.080;2023-08-20T04:42:05;23.60;99.90
6841;DHT22;3458;53.678;14.080;2023-08-20T04:44:31;23.50;99.90
6841;DHT22;3458;53.678;14.080;2023-08-20T04:46:56;23.50;99.90
6841;DHT22;3458;53.678;14.080;2023-08-20T04:49:22;23.40;99.90
6841;DHT22;3458;53.678;14.080;2023-08-20T04:51:47;23.50;99.90
6841;DHT22;3458;53.678;14.080;2023-08-20T04:54:13;23.50;99.90
6841;DHT22;3458;53.678;14.080;2023-08-20T04:56:38;23.50;99.90
6841;DHT22;3458;53.678;14.080;2023-08-20T04:59:04;23.50;99.90
6841;DHT22;3458;53.678;14.080;2023-08-20T05:01:29;23.50;99.90
6841;DHT22;3458;53.678;14.080;2023-08-20T05:03:55;23.60;99.90
6841;DHT22;3458;53.678;14.080;2023-08-20T05:06:20;23.50;99.90
6841;DHT22;3458;53.678;14.080;2023-08-20T05:08:46;23.50;99.90
6841;DHT22;3458;53.678;14.080;2023-08-20T05:11:11;23.60;99.90
6841;DHT22;3458;53.678;14.080;2023-08-20T05:13:37;23.60;99.90
6841;DHT22;3458;53.678;14.080;2023-08-20T05:16:02;23.60;99.90
6841;DHT22;3458;53.678;14.080;2023-08-20T05:18:28;23.60;99.90
6841;DHT22;3458;53.678;14.080;2023-08-20T05:20:53;23.70;99.90
6841;DHT22;3458;53.678;14.080;2023-08-20T05:23:19;23.60;99.90
6841;DHT22;3458;53.678;14.080;2023-08-20T05:25:44;23.60;99.90
6841;DHT22;3458;53.678;14.080;2023-08-20T05:28:10;23.70;99.90
6841;DHT22;3458;53.678;14.080;2023-08-20T05:30:35;23.70;99.90
6841;DHT22;3458;53.678;14.080;2023-08-20T05:33:01;23.70;99.90
6841;DHT22;3458;53.678;14.080;2023-08-20T05:35:26;23.70;99.90
6841;DHT22;3458;53.678;14.080;2023-08-20T05:37:52;23.70;99.90
6841;DHT22;3458;53.678;14.080;2023-08-20T05:40:17;23.70;99.90
6841;DHT22;3458;53.678;14.080;2023-08-20T05:42:43;23.70;99.90
6841;DHT22;3458;53.678;14.080;2023-08-20T05:45:08;23.70;99.90
6841;DHT22;3458;53.678;14.080;2023-08-20T05:47:34;23.70;99.90
6841;DHT22;3458;53.678;14.080;2023-08-20T05:49:59;23.80;99.90
6841;DHT22;3458;53.678;14.080;2023-08-20T05:52:25;23.80;99.90
6841;DHT22;3458;53.678;14.080;2023-08-20T05:54:50;23.80;99.90
6841;DHT22;3458;53.678;14.080;2023-08-20T05:57:16;23.80;99.90
6841;DHT22;3458;53.678;14.080;2023-08-20T05:59:41;23.90;99.90
6841;DHT22;3458;53.678;14.080;2023-08-20T06:02:07;23.90;99.90
6841;DHT22;3458;53.678;14.080;2023-08-20T06:04:32;23.90;99.90
6841;DHT22;3458;53.678;14.080;2023-08-20T06:06:58;23.90;99.90
6841;DHT22;3458;53.678;14.080;2023-08-20T06:09:24;23.90;99.90
6841;DHT22;3458;53.678;14.080;2023-08-20T06:11:49;23.90;99.90
6841;DHT22;3458;53.678;14.080;2023-08-20T06:14:15;23.80;99.90
6841;DHT22;3458;53.678;14.080;2023-08-20T06:16:40;23.80;99.90
6841;DHT22;3458;53.678;14.080;2023-08-20T06:19:06;23.90;99.90
6841;DHT22;3458;53.678;14.080;2023-08-20T06:21:31;23.90;99.90
6841;DHT22;3458;53.678;14.080;2023-08-20T06:23:57;23.90;99.90
6841;DHT22;3458;53.678;14.080;2023-08-20T06:26:22;23.90;99.90
6841;DHT22;3458;53.678;14.080;2023-08-20T06:28:48;23.90;99.90
6841;DHT22;3458;53.678;14.080;2023-08-20T06:31:13;23.90;99.90
6841;DHT22;3458;53.678;14.080;2023-08-20T06:33:39;23.90;99.90
6841;DHT22;3458;53.678;14.080;2023-08-20T06:36:04;23.80;99.90
6841;DHT22;3458;53.678;14.080;2023-08-20T06:38:30;23.80;99.90
6841;DHT22;3458;53.678;14.080;2023-08-20T06:40:56;23.90;99.90
6841;DHT22;3458;53.678;14.080;2023-08-20T06:43:21;23.80;99.90
6841;DHT22;3458;53.678;14.080;2023-08-20T06:45:47;23.80;99.90
6841;DHT22;3458;53.678;14.080;2023-08-20T06:48:12;23.90;99.90
6841;DHT22;3458;53.678;14.080;2023-08-20T06:50:38;23.90;99.90
6841;DHT22;3458;53.678;14.080;2023-08-20T06:53:03;23.90;99.90
6841;DHT22;3458;53.678;14.080;2023-08-20T06:55:29;23.90;99.90
6841;DHT22;3458;53.678;14.080;2023-08-20T06:57:54;23.80;99.90
6841;DHT22;3458;53.678;14.080;2023-08-20T07:00:20;23.90;99.90
6841;DHT22;3458;53.678;14.080;2023-08-20T07:02:45;23.90;99.90
6841;DHT22;3458;53.678;14.080;2023-08-20T07:05:11;24.00;99.90
6841;DHT22;3458;53.678;14.080;2023-08-20T07:07:36;23.90;99.90
6841;DHT22;3458;53.678;14.080;2023-08-20T07:10:02;23.90;99.90
6841;DHT22;3458;53.678;14.080;2023-08-20T07:12:28;23.90;99.90
6841;DHT22;3458;53.678;14.080;2023-08-20T07:14:54;23.90;99.90
6841;DHT22;3458;53.678;14.080;2023-08-20T07:17:19;23.80;99.90
6841;DHT22;3458;53.678;14.080;2023-08-20T07:19:45;23.90;99.90
6841;DHT22;3458;53.678;14.080;2023-08-20T07:22:10;23.80;99.90
6841;DHT22;3458;53.678;14.080;2023-08-20T07:24:36;23.70;99.90
6841;DHT22;3458;53.678;14.080;2023-08-20T07:27:02;23.70;99.90
6841;DHT22;3458;53.678;14.080;2023-08-20T07:29:30;23.80;99.90
6841;DHT22;3458;53.678;14.080;2023-08-20T07:31:56;23.80;99.90
6841;DHT22;3458;53.678;14.080;2023-08-20T07:34:22;23.80;99.90
6841;DHT22;3458;53.678;14.080;2023-08-20T07:36:47;23.80;99.90
6841;DHT22;3458;53.678;14.080;2023-08-20T07:39:13;23.80;99.90
6841;DHT22;3458;53.678;14.080;2023-08-20T07:41:40;23.70;99.90
6841;DHT22;3458;53.678;14.080;2023-08-20T07:44:05;23.70;99.90
6841;DHT22;3458;53.678;14.080;2023-08-20T07:46:31;23.80;99.90
6841;DHT22;3458;53.678;14.080;2023-08-20T07:48:56;23.80;99.90
6841;DHT22;3458;53.678;14.080;2023-08-20T07:51:22;23.80;99.90
6841;DHT22;3458;53.678;14.080;2023-08-20T07:53:47;23.70;99.90
6841;DHT22;3458;53.678;14.080;2023-08-20T07:56:13;23.70;99.90
6841;DHT22;3458;53.678;14.080;2023-08-20T07:58:38;23.70;99.90
6841;DHT22;3458;53.678;14.080;2023-08-20T08:01:04;23.80;99.90
6841;DHT22;3458;53.678;14.080;2023-08-20T08:03:29;23.80;99.90
6841;DHT22;3458;53.678;14.080;2023-08-20T08:05:55;23.80;99.90
6841;DHT22;3458;53.678;14.080;2023-08-20T08:08:21;23.80;99.90
6841;DHT22;3458;53.678;14.080;2023-08-20T08:10:47;23.80;99.90
6841;DHT22;3458;53.678;14.080;2023-08-20T08:13:14;23.90;99.90
6841;DHT22;3458;53.678;14.080;2023-08-20T08:15:39;24.00;99.90
6841;DHT22;3458;53.678;14.080;2023-08-20T08:18:06;24.00;99.90
6841;DHT22;3458;53.678;14.080;2023-08-20T08:20:32;24.00;99.90
6841;DHT22;3458;53.678;14.080;2023-08-20T08:22:57;24.10;99.90
6841;DHT22;3458;53.678;14.080;2023-08-20T08:25:22;24.20;99.90
6841;DHT22;3458;53.678;14.080;2023-08-20T08:27:48;24.20;99.90
6841;DHT22;3458;53.678;14.080;2023-08-20T08:30:14;24.30;99.90
6841;DHT22;3458;53.678;14.080;2023-08-20T08:32:40;24.40;99.90
6841;DHT22;3458;53.678;14.080;2023-08-20T08:35:06;24.50;99.90
6841;DHT22;3458;53.678;14.080;2023-08-20T08:37:31;24.40;99.90
6841;DHT22;3458;53.678;14.080;2023-08-20T08:39:57;24.40;99.90
6841;DHT22;3458;53.678;14.080;2023-08-20T08:42:23;24.50;99.90
6841;DHT22;3458;53.678;14.080;2023-08-20T08:44:50;24.50;99.90
6841;DHT22;3458;53.678;14.080;2023-08-20T08:47:16;24.60;99.90
6841;DHT22;3458;53.678;14.080;2023-08-20T08:49:42;24.50;99.90
6841;DHT22;3458;53.678;14.080;2023-08-20T08:52:10;24.60;99.90
6841;DHT22;3458;53.678;14.080;2023-08-20T08:54:36;24.70;99.90
6841;DHT22;3458;53.678;14.080;2023-08-20T08:57:02;24.80;99.90
6841;DHT22;3458;53.678;14.080;2023-08-20T08:59:27;24.80;99.90
6841;DHT22;3458;53.678;14.080;2023-08-20T09:01:54;25.00;99.90
6841;DHT22;3458;53.678;14.080;2023-08-20T09:04:22;25.10;99.90
6841;DHT22;3458;53.678;14.080;2023-08-20T09:09:14;25.30;99.90
6841;DHT22;3458;53.678;14.080;2023-08-20T09:11:40;25.50;99.90
6841;DHT22;3458;53.678;14.080;2023-08-20T09:14:05;25.60;99.90
6841;DHT22;3458;53.678;14.080;2023-08-20T09:16:31;25.80;99.90
6841;DHT22;3458;53.678;14.080;2023-08-20T09:18:59;25.90;99.90
6841;DHT22;3458;53.678;14.080;2023-08-20T09:21:28;25.80;99.90
6841;DHT22;3458;53.678;14.080;2023-08-20T09:23:55;25.80;99.90
6841;DHT22;3458;53.678;14.080;2023-08-20T09:26:21;25.90;99.90
6841;DHT22;3458;53.678;14.080;2023-08-20T09:28:47;26.00;99.90
6841;DHT22;3458;53.678;14.080;2023-08-20T09:31:13;26.10;99.90
6841;DHT22;3458;53.678;14.080;2023-08-20T09:33:50;26.20;99.90
6841;DHT22;3458;53.678;14.080;2023-08-20T09:36:16;26.40;99.90
6841;DHT22;3458;53.678;14.080;2023-08-20T09:38:41;26.30;99.90
6841;DHT22;3458;53.678;14.080;2023-08-20T09:41:08;26.20;99.90
6841;DHT22;3458;53.678;14.080;2023-08-20T09:43:38;26.00;99.90
6841;DHT22;3458;53.678;14.080;2023-08-20T09:46:05;26.00;99.90
6841;DHT22;3458;53.678;14.080;2023-08-20T09:48:34;26.10;99.90
6841;DHT22;3458;53.678;14.080;2023-08-20T09:51:04;26.20;99.90
6841;DHT22;3458;53.678;14.080;2023-08-20T09:53:43;26.20;99.90
6841;DHT22;3458;53.678;14.080;2023-08-20T09:56:17;26.10;99.90
6841;DHT22;3458;53.678;14.080;2023-08-20T09:58:46;26.00;99.90
6841;DHT22;3458;53.678;14.080;2023-08-20T10:01:13;26.00;99.90
6841;DHT22;3458;53.678;14.080;2023-08-20T10:03:39;25.90;99.90
6841;DHT22;3458;53.678;14.080;2023-08-20T10:06:05;25.90;99.90
6841;DHT22;3458;53.678;14.080;2023-08-20T10:08:31;25.90;99.90
6841;DHT22;3458;53.678;14.080;2023-08-20T10:10:57;26.00;99.90
6841;DHT22;3458;53.678;14.080;2023-08-20T10:13:22;26.10;99.90
6841;DHT22;3458;53.678;14.080;2023-08-20T10:15:48;26.00;99.90
6841;DHT22;3458;53.678;14.080;2023-08-20T10:18:14;26.10;99.90
6841;DHT22;3458;53.678;14.080;2023-08-20T10:20:40;26.20;99.90
6841;DHT22;3458;53.678;14.080;2023-08-20T10:23:07;26.20;99.90
6841;DHT22;3458;53.678;14.080;2023-08-20T10:25:40;26.20;99.90
6841;DHT22;3458;53.678;14.080;2023-08-20T10:28:19;26.10;99.90
6841;DHT22;3458;53.678;14.080;2023-08-20T10:31:08;26.10;99.90
6841;DHT22;3458;53.678;14.080;2023-08-20T10:33:37;26.10;99.90
6841;DHT22;3458;53.678;14.080;2023-08-20T10:36:29;26.00;99.90
6841;DHT22;3458;53.678;14.080;2023-08-20T10:38:55;25.90;99.90
6841;DHT22;3458;53.678;14.080;2023-08-20T10:41:28;25.80;99.90
6841;DHT22;3458;53.678;14.080;2023-08-20T10:43:58;25.80;99.90
6841;DHT22;3458;53.678;14.080;2023-08-20T10:46:25;25.70;99.90
6841;DHT22;3458;53.678;14.080;2023-08-20T10:48:58;25.60;99.90
6841;DHT22;3458;53.678;14.080;2023-08-20T10:51:31;25.60;99.90
6841;DHT22;3458;53.678;14.080;2023-08-20T10:59:26;25.40;99.90
6841;DHT22;3458;53.678;14.080;2023-08-20T11:01:57;25.30;99.90
6841;DHT22;3458;53.678;14.080;2023-08-20T11:04:28;25.10;99.90
6841;DHT22;3458;53.678;14.080;2023-08-20T11:06:55;25.10;99.90
6841;DHT22;3458;53.678;14.080;2023-08-20T11:09:26;25.10;99.90
6841;DHT22;3458;53.678;14.080;2023-08-20T11:11:52;25.00;99.90
6841;DHT22;3458;53.678;14.080;2023-08-20T11:14:19;24.90;99.90
6841;DHT22;3458;53.678;14.080;2023-08-20T11:16:46;24.80;99.90
6841;DHT22;3458;53.678;14.080;2023-08-20T11:19:12;24.80;99.90
6841;DHT22;3458;53.678;14.080;2023-08-20T11:21:39;24.80;99.90
6841;DHT22;3458;53.678;14.080;2023-08-20T11:24:06;24.70;99.90
6841;DHT22;3458;53.678;14.080;2023-08-20T11:26:32;24.70;99.90
6841;DHT22;3458;53.678;14.080;2023-08-20T11:28:58;24.60;99.90
6841;DHT22;3458;53.678;14.080;2023-08-20T11:31:24;24.70;99.90
6841;DHT22;3458;53.678;14.080;2023-08-20T11:33:50;24.80;99.90
6841;DHT22;3458;53.678;14.080;2023-08-20T11:36:16;24.70;99.90
6841;DHT22;3458;53.678;14.080;2023-08-20T11:38:42;24.70;99.90
6841;DHT22;3458;53.678;14.080;2023-08-20T11:41:08;24.80;99.90
6841;DHT22;3458;53.678;14.080;2023-08-20T11:43:34;24.80;99.90
6841;DHT22;3458;53.678;14.080;2023-08-20T11:45:59;24.80;99.90
6841;DHT22;3458;53.678;14.080;2023-08-20T11:48:25;24.80;99.90
6841;DHT22;3458;53.678;14.080;2023-08-20T11:50:51;24.90;99.90
6841;DHT22;3458;53.678;14.080;2023-08-20T11:53:21;25.00;99.90
6841;DHT22;3458;53.678;14.080;2023-08-20T11:55:48;25.10;99.90
6841;DHT22;3458;53.678;14.080;2023-08-20T11:58:14;25.30;99.90
6841;DHT22;3458;53.678;14.080;2023-08-20T12:00:40;25.70;99.90
6841;DHT22;3458;53.678;14.080;2023-08-20T12:03:05;26.00;99.90
6841;DHT22;3458;53.678;14.080;2023-08-20T12:05:31;26.10;99.90
6841;DHT22;3458;53.678;14.080;2023-08-20T12:08:03;26.30;99.90
6841;DHT22;3458;53.678;14.080;2023-08-20T12:10:30;26.50;99.90
6841;DHT22;3458;53.678;14.080;2023-08-20T12:12:57;26.70;99.90
6841;DHT22;3458;53.678;14.080;2023-08-20T12:15:24;26.80;99.90
6841;DHT22;3458;53.678;14.080;2023-08-20T12:18:04;26.80;99.90
6841;DHT22;3458;53.678;14.080;2023-08-20T12:20:31;26.70;99.90
6841;DHT22;3458;53.678;14.080;2023-08-20T12:22:58;26.60;99.90
6841;DHT22;3458;53.678;14.080;2023-08-20T12:25:24;26.60;99.90
6841;DHT22;3458;53.678;14.080;2023-08-20T12:27:50;26.60;99.90
6841;DHT22;3458;53.678;14.080;2023-08-20T12:30:15;26.60;99.90
6841;DHT22;3458;53.678;14.080;2023-08-20T12:32:41;26.60;99.90
6841;DHT22;3458;53.678;14.080;2023-08-20T12:35:06;26.60;99.90
6841;DHT22;3458;53.678;14.080;2023-08-20T12:37:32;26.80;99.90
6841;DHT22;3458;53.678;14.080;2023-08-20T12:39:58;26.80;99.90
6841;DHT22;3458;53.678;14.080;2023-08-20T12:42:23;26.90;99.90
6841;DHT22;3458;53.678;14.080;2023-08-20T12:44:49;26.90;99.90
6841;DHT22;3458;53.678;14.080;2023-08-20T12:47:15;27.30;99.90
6841;DHT22;3458;53.678;14.080;2023-08-20T12:49:41;27.60;99.90
6841;DHT22;3458;53.678;14.080;2023-08-20T12:52:06;27.50;99.90
6841;DHT22;3458;53.678;14.080;2023-08-20T12:54:32;27.80;99.90
6841;DHT22;3458;53.678;14.080;2023-08-20T12:56:58;28.00;99.90
6841;DHT22;3458;53.678;14.080;2023-08-20T12:59:24;28.00;99.90
6841;DHT22;3458;53.678;14.080;2023-08-20T13:01:49;28.20;99.90
6841;DHT22;3458;53.678;14.080;2023-08-20T13:04:15;28.40;99.90
6841;DHT22;3458;53.678;14.080;2023-08-20T13:06:41;28.50;99.90
6841;DHT22;3458;53.678;14.080;2023-08-20T13:09:07;28.70;99.90
6841;DHT22;3458;53.678;14.080;2023-08-20T13:11:36;29.00;99.90
6841;DHT22;3458;53.678;14.080;2023-08-20T13:14:03;28.90;99.90
6841;DHT22;3458;53.678;14.080;2023-08-20T13:16:29;28.80;99.90
6841;DHT22;3458;53.678;14.080;2023-08-20T13:18:55;29.00;99.90
6841;DHT22;3458;53.678;14.080;2023-08-20T13:21:21;29.30;99.90
6841;DHT22;3458;53.678;14.080;2023-08-20T13:23:46;29.50;99.90
6841;DHT22;3458;53.678;14.080;2023-08-20T13:26:12;29.80;99.90
6841;DHT22;3458;53.678;14.080;2023-08-20T13:28:37;30.00;99.90
6841;DHT22;3458;53.678;14.080;2023-08-20T13:31:03;29.70;99.90
6841;DHT22;3458;53.678;14.080;2023-08-20T13:33:28;29.30;99.90
6841;DHT22;3458;53.678;14.080;2023-08-20T13:35:54;29.30;99.90
6841;DHT22;3458;53.678;14.080;2023-08-20T13:38:21;29.50;99.90
6841;DHT22;3458;53.678;14.080;2023-08-20T13:40:47;29.90;99.90
6841;DHT22;3458;53.678;14.080;2023-08-20T13:43:14;30.30;99.90
6841;DHT22;3458;53.678;14.080;2023-08-20T13:45:39;30.60;99.90
6841;DHT22;3458;53.678;14.080;2023-08-20T13:48:05;30.80;99.90
6841;DHT22;3458;53.678;14.080;2023-08-20T13:50:30;30.90;99.90
6841;DHT22;3458;53.678;14.080;2023-08-20T13:52:56;31.00;99.90
6841;DHT22;3458;53.678;14.080;2023-08-20T13:55:21;31.10;99.90
6841;DHT22;3458;53.678;14.080;2023-08-20T13:57:47;31.30;99.50
6841;DHT22;3458;53.678;14.080;2023-08-20T14:00:13;31.50;98.60
6841;DHT22;3458;53.678;14.080;2023-08-20T14:02:39;31.80;96.80
6841;DHT22;3458;53.678;14.080;2023-08-20T14:05:05;32.00;95.30
6841;DHT22;3458;53.678;14.080;2023-08-20T14:07:31;32.20;94.90
6841;DHT22;3458;53.678;14.080;2023-08-20T14:09:58;32.60;93.90
6841;DHT22;3458;53.678;14.080;2023-08-20T14:12:24;33.00;93.60
6841;DHT22;3458;53.678;14.080;2023-08-20T14:14:50;33.30;92.60
6841;DHT22;3458;53.678;14.080;2023-08-20T14:17:16;33.60;90.00
6841;DHT22;3458;53.678;14.080;2023-08-20T14:19:41;33.60;86.20
6841;DHT22;3458;53.678;14.080;2023-08-20T14:22:07;33.80;84.10
6841;DHT22;3458;53.678;14.080;2023-08-20T14:24:32;34.10;81.70
6841;DHT22;3458;53.678;14.080;2023-08-20T14:26:58;34.20;79.20
6841;DHT22;3458;53.678;14.080;2023-08-20T14:29:23;34.40;77.80
6841;DHT22;3458;53.678;14.080;2023-08-20T14:31:49;34.70;76.20
6841;DHT22;3458;53.678;14.080;2023-08-20T14:34:14;34.80;73.10
6841;DHT22;3458;53.678;14.080;2023-08-20T14:36:40;34.70;72.80
6841;DHT22;3458;53.678;14.080;2023-08-20T14:39:06;34.80;71.30
6841;DHT22;3458;53.678;14.080;2023-08-20T14:41:32;35.20;69.60
6841;DHT22;3458;53.678;14.080;2023-08-20T14:43:58;35.20;65.80
6841;DHT22;3458;53.678;14.080;2023-08-20T14:46:24;35.40;65.40
6841;DHT22;3458;53.678;14.080;2023-08-20T14:48:50;35.60;65.30
6841;DHT22;3458;53.678;14.080;2023-08-20T14:51:16;36.00;64.50
6841;DHT22;3458;53.678;14.080;2023-08-20T14:53:42;36.00;60.80
6841;DHT22;3458;53.678;14.080;2023-08-20T14:56:10;36.00;60.40
6841;DHT22;3458;53.678;14.080;2023-08-20T14:58:36;36.10;58.80
6841;DHT22;3458;53.678;14.080;2023-08-20T15:01:01;36.30;58.70
6841;DHT22;3458;53.678;14.080;2023-08-20T15:03:28;36.40;57.60
6841;DHT22;3458;53.678;14.080;2023-08-20T15:05:54;36.50;57.80
6841;DHT22;3458;53.678;14.080;2023-08-20T15:08:19;36.90;58.40
6841;DHT22;3458;53.678;14.080;2023-08-20T15:10:59;37.10;56.10
6841;DHT22;3458;53.678;14.080;2023-08-20T15:13:26;37.30;55.60
6841;DHT22;3458;53.678;14.080;2023-08-20T15:15:53;37.50;55.00
6841;DHT22;3458;53.678;14.080;2023-08-20T15:18:19;37.70;54.00
6841;DHT22;3458;53.678;14.080;2023-08-20T15:20:45;37.90;51.80
6841;DHT22;3458;53.678;14.080;2023-08-20T15:23:10;38.00;51.20
6841;DHT22;3458;53.678;14.080;2023-08-20T15:25:36;38.20;50.20
6841;DHT22;3458;53.678;14.080;2023-08-20T15:28:02;38.20;48.90
6841;DHT22;3458;53.678;14.080;2023-08-20T15:30:34;38.50;48.70
6841;DHT22;3458;53.678;14.080;2023-08-20T15:33:00;38.80;48.00
6841;DHT22;3458;53.678;14.080;2023-08-20T15:35:25;39.00;47.00
6841;DHT22;3458;53.678;14.080;2023-08-20T15:37:51;39.10;46.10
6841;DHT22;3458;53.678;14.080;2023-08-20T15:40:18;39.30;45.70
6841;DHT22;3458;53.678;14.080;2023-08-20T15:42:44;39.40;44.90
6841;DHT22;3458;53.678;14.080;2023-08-20T15:45:10;39.60;44.40
6841;DHT22;3458;53.678;14.080;2023-08-20T15:47:39;39.70;44.20
6841;DHT22;3458;53.678;14.080;2023-08-20T15:50:05;39.80;43.80
6841;DHT22;3458;53.678;14.080;2023-08-20T15:52:31;39.70;43.60
6841;DHT22;3458;53.678;14.080;2023-08-20T15:54:57;39.60;43.80